createdAt,value
2022-12-26T14:05:39.357Z,14.70
2022-12-26T14:07:45.914Z,14.50
2022-12-26T14:10:06.172Z,14.40
2022-12-26T14:12:46.011Z,14.20
2022-12-26T14:15:01.072Z,14.20
2022-12-26T14:17:21.298Z,14.10
2022-12-26T14:19:40.211Z,14.00
2022-12-26T14:21:54.126Z,14.10
2022-12-26T14:24:01.167Z,14.20
2022-12-26T14:26:11.026Z,14.30
2022-12-26T14:28:21.358Z,14.30
2022-12-26T14:30:28.067Z,14.30
2022-12-26T14:32:39.107Z,14.30
2022-12-26T14:34:55.414Z,14.20
2022-12-26T14:37:03.195Z,14.10
2022-12-26T14:39:12.848Z,14.00
2022-12-26T14:41:31.474Z,14.00
2022-12-26T14:43:37.039Z,13.90
2022-12-26T14:45:54.881Z,13.80
2022-12-26T14:48:02.231Z,13.70
2022-12-26T14:50:37.876Z,13.60
2022-12-26T14:52:46.484Z,13.60
2022-12-26T14:54:51.475Z,13.60
2022-12-26T14:56:55.895Z,13.60
2022-12-26T14:59:28.093Z,13.60
2022-12-26T15:01:51.241Z,13.70
2022-12-26T15:03:57.562Z,13.80
2022-12-26T15:06:32.032Z,13.90
2022-12-26T15:08:56.041Z,14.00
2022-12-26T15:11:31.076Z,14.10
2022-12-26T15:14:04.848Z,14.20
2022-12-26T15:16:32.682Z,14.20
2022-12-26T15:19:23.205Z,14.20
2022-12-26T15:22:10.934Z,14.20
2022-12-26T15:25:16.437Z,14.10
2022-12-26T15:27:18.355Z,14.10
2022-12-26T15:29:59.724Z,14.00
2022-12-26T15:32:15.051Z,14.00
2022-12-26T15:34:52.936Z,14.00
2022-12-26T15:36:59.978Z,13.90
2022-12-26T15:39:05.132Z,13.90
2022-12-26T15:41:22.858Z,13.90
2022-12-26T15:43:51.427Z,13.90
2022-12-26T15:46:00.816Z,13.90
2022-12-26T15:48:06.515Z,13.90
2022-12-26T15:50:21.506Z,14.00
2022-12-26T15:52:31.888Z,14.00
2022-12-26T15:55:04.974Z,14.10
2022-12-26T15:57:16.409Z,14.10
2022-12-26T15:59:41.490Z,14.20
2022-12-26T16:05:35.414Z,14.20
2022-12-26T16:17:20.726Z,14.10
2022-12-26T16:19:25.614Z,14.00
2022-12-26T16:21:48.871Z,14.10
2022-12-26T16:23:53.130Z,14.00
2022-12-26T16:25:57.144Z,14.00
2022-12-26T16:28:01.051Z,13.90
2022-12-26T16:30:11.983Z,13.90
2022-12-26T16:32:31.223Z,13.90
2022-12-26T16:34:46.282Z,13.80
2022-12-26T16:37:04.523Z,13.70
2022-12-26T16:39:27.576Z,13.60
2022-12-26T16:41:54.398Z,13.50
2022-12-26T16:44:26.709Z,13.40
2022-12-26T16:46:34.297Z,13.40
2022-12-26T16:48:44.057Z,13.40
2022-12-26T16:50:51.275Z,13.40
2022-12-26T16:53:07.958Z,13.30
2022-12-26T16:55:40.723Z,13.20
2022-12-26T16:57:44.242Z,13.10
2022-12-26T16:59:52.228Z,13.10
